Independence of the Seas — C6WW4 — position and weather

sailwx.info

Track history (hours):
 
Tides and Currents Weather Stations Pressure Air Temp Water Temp Dewpoint Dewpoint Depression Visibility Wind Speed Wind Dir Waves Ship Positions

Independence of the Seas

Last reported at 2017-Aug-19 05:00 UTC. Time now 2017-Aug-19 05:26 UTC.
Position N 49°29' E 000°06'.

Length 339 m; draft 8.8 m.

Type: Passenger vessel. MMSI: 309374000.

Date/timePositionNaut miles runAvg speedWind from/ knotsBaromVisibWave heightAir tempDewpointWater temp
2017-Aug-19 05:00N 49°29' E 000°06'0 0.0
2017-Aug-19 04:30N 49°29' E 000°06'0 0.9
2017-Aug-19 04:01N 49°29' E 000°07'4 7.5
2017-Aug-19 03:30N 49°30' E 000°02'611.0
2017-Aug-19 03:00N 49°32' W 000°07'37 5.8
2017-Aug-18 20:33N 49°51' W 000°56'1 9.1
2017-Aug-18 20:25N 49°51' W 000°58'4 8.8
2017-Aug-18 20:01N 49°53' W 001°03'5 9.4
2017-Aug-18 19:31N 49°55' W 001°09'5 9.4
2017-Aug-18 19:00N 49°57' W 001°16'5 8.7
2017-Aug-18 18:26N 49°55' W 001°23'4 9.3
2017-Aug-18 18:00N 49°52' W 001°28'5 9.4
2017-Aug-18 17:30N 49°49' W 001°33'4 8.7
2017-Aug-18 17:00N 49°46' W 001°37'5 9.1
2017-Aug-18 16:30N 49°42' W 001°40'3 6.7
2017-Aug-18 16:00N 49°39' W 001°37'0 0.2
2017-Aug-18 15:29N 49°39' W 001°37'0 0.0
2017-Aug-18 14:59N 49°39' W 001°37'0 0.0
2017-Aug-18 14:29N 49°39' W 001°37'0 0.0
2017-Aug-18 13:29N 49°39' W 001°37'0 0.0
2017-Aug-18 12:59N 49°39' W 001°37'0 0.0
2017-Aug-18 12:29N 49°39' W 001°37'0 0.0
2017-Aug-18 11:59N 49°39' W 001°37'0 0.0
2017-Aug-18 11:29N 49°39' W 001°37'0 0.0
2017-Aug-18 10:59N 49°39' W 001°37'0 0.0
2017-Aug-18 10:29N 49°39' W 001°37'0 0.0
2017-Aug-18 09:59N 49°39' W 001°37'0 0.0
2017-Aug-18 09:29N 49°39' W 001°37'0 0.0
2017-Aug-18 08:59N 49°39' W 001°37'0 0.0
2017-Aug-18 08:29N 49°39' W 001°37'0 0.0
2017-Aug-18 07:59N 49°39' W 001°37'0 0.0
2017-Aug-18 07:29N 49°39' W 001°37'0 0.0
2017-Aug-18 06:59N 49°39' W 001°37'0 0.0
2017-Aug-18 06:29N 49°39' W 001°37'2 4.1
2017-Aug-18 06:00N 49°40' W 001°39'713.4
2017-Aug-18 05:30N 49°45' W 001°47'713.8
2017-Aug-18 05:00N 49°48' W 001°56'4814.6
2017-Aug-18 01:42N 49°43' W 003°10'315.3
2017-Aug-18 01:30N 49°41' W 003°14'714.1
2017-Aug-18 01:00N 49°37' W 003°23'  
2017-Aug-14 15:10N 43°35' W 005°41'38310.4
2017-Aug-13 02:25N 49°47' W 003°33'615.5
2017-Aug-13 02:00N 49°50' W 003°24'815.0
2017-Aug-13 01:28N 49°53' W 003°13'714.5
2017-Aug-13 01:00N 49°56' W 003°04'713.9
2017-Aug-13 00:30N 49°59' W 002°54'4612.0
2017-Aug-12 20:41N 50°17' W 001°48'412.3
2017-Aug-12 20:22N 50°19' W 001°43'512.9
2017-Aug-12 20:00N 50°21' W 001°36'3114.2
2017-Aug-12 17:50N 50°40' W 000°58'310.3
2017-Aug-12 17:30N 50°43' W 000°60'815.4
2017-Aug-12 17:01N 50°46' W 001°11'5 9.4
2017-Aug-12 16:30N 50°48' W 001°18'4 8.3
2017-Aug-12 16:01N 50°52' W 001°21'4 0.3
2017-Aug-12 03:14N 50°49' W 001°17'2 5.6
2017-Aug-12 02:49N 50°47' W 001°15'414.1
2017-Aug-12 02:30N 50°46' W 001°08'713.3
2017-Aug-12 02:00N 50°43' W 000°59'611.0
2017-Aug-12 01:29N 50°37' W 001°00'10515.1
2017-Aug-11 18:34N 49°40' W 003°17'115.1
2017-Aug-11 18:30N 49°40' W 003°18'5114.4
2017-Aug-11 14:58N 49°15' W 004°28'65516.2
2017-Aug-09 22:26N 39°04' W 009°52'715.3
2017-Aug-09 22:00N 38°57' W 009°52'815.3
2017-Aug-09 21:28N 38°49' W 009°51'715.5
2017-Aug-09 21:00N 38°41' W 009°50'816.0
2017-Aug-09 20:30N 38°37' W 009°42'917.0
2017-Aug-09 20:00N 38°36' W 009°31'814.9
2017-Aug-09 19:28N 38°38' W 009°21'715.2
2017-Aug-09 19:00N 38°41' W 009°12'4 8.0
2017-Aug-09 18:29N 38°43' W 009°07'0 0.0
2017-Aug-09 17:59N 38°43' W 009°07'0 0.0
2017-Aug-09 17:29N 38°43' W 009°07'0 0.0
2017-Aug-09 16:56N 38°43' W 009°07'0 0.0
2017-Aug-09 16:26N 38°43' W 009°07'0 0.0
2017-Aug-09 15:59N 38°43' W 009°07'0 0.0
2017-Aug-09 15:29N 38°43' W 009°07'0 0.0
2017-Aug-09 14:59N 38°43' W 009°07'0 0.0
2017-Aug-09 14:23N 38°43' W 009°07'0 0.0
2017-Aug-09 13:59N 38°43' W 009°07'0 0.0
2017-Aug-09 13:29N 38°43' W 009°07'0 0.0
2017-Aug-09 12:59N 38°43' W 009°07'0 0.0
2017-Aug-09 12:29N 38°43' W 009°07'0 0.0
2017-Aug-09 11:53N 38°43' W 009°07'0 0.0
2017-Aug-09 11:29N 38°43' W 009°07'0 0.0
2017-Aug-09 10:59N 38°43' W 009°07'1 1.2
2017-Aug-09 10:25N 38°42' W 009°08'510.9
2017-Aug-09 10:00N 38°41' W 009°14'714.7
2017-Aug-09 09:30N 38°38' W 009°22'815.4
2017-Aug-09 09:00N 38°30' W 009°25'918.5
2017-Aug-09 08:30N 38°21' W 009°25'1018.8
2017-Aug-09 07:57N 38°11' W 009°24'818.6
2017-Aug-09 07:30N 38°03' W 009°24'917.6
2017-Aug-09 07:00N 37°54' W 009°24'917.8
2017-Aug-09 06:29N 37°44' W 009°23'  
Track history (hours):
 
Tides and Currents Weather Stations Pressure Air Temp Water Temp Dewpoint Dewpoint Depression Visibility Wind Speed Wind Dir Waves Ship Positions

Independence of the Seas

Last reported at 2017-Aug-19 05:00 UTC. Time now 2017-Aug-19 05:26 UTC.
Position N 49°29' E 000°06'.

Length 339 m; draft 8.8 m.

Type: Passenger vessel. MMSI: 309374000.

Date/timePositionNaut miles runAvg speedWind from/ knotsBaromVisibWave heightAir tempDewpointWater temp
2017-Aug-19 05:00N 49°29' E 000°06'0 0.0
2017-Aug-19 04:30N 49°29' E 000°06'0 0.9
2017-Aug-19 04:01N 49°29' E 000°07'4 7.5
2017-Aug-19 03:30N 49°30' E 000°02'611.0
2017-Aug-19 03:00N 49°32' W 000°07'37 5.8
2017-Aug-18 20:33N 49°51' W 000°56'1 9.1
2017-Aug-18 20:25N 49°51' W 000°58'4 8.8
2017-Aug-18 20:01N 49°53' W 001°03'5 9.4
2017-Aug-18 19:31N 49°55' W 001°09'5 9.4
2017-Aug-18 19:00N 49°57' W 001°16'5 8.7
2017-Aug-18 18:26N 49°55' W 001°23'4 9.3
2017-Aug-18 18:00N 49°52' W 001°28'5 9.4
2017-Aug-18 17:30N 49°49' W 001°33'4 8.7
2017-Aug-18 17:00N 49°46' W 001°37'5 9.1
2017-Aug-18 16:30N 49°42' W 001°40'3 6.7
2017-Aug-18 16:00N 49°39' W 001°37'0 0.2
2017-Aug-18 15:29N 49°39' W 001°37'0 0.0
2017-Aug-18 14:59N 49°39' W 001°37'0 0.0
2017-Aug-18 14:29N 49°39' W 001°37'0 0.0
2017-Aug-18 13:29N 49°39' W 001°37'0 0.0
2017-Aug-18 12:59N 49°39' W 001°37'0 0.0
2017-Aug-18 12:29N 49°39' W 001°37'0 0.0
2017-Aug-18 11:59N 49°39' W 001°37'0 0.0
2017-Aug-18 11:29N 49°39' W 001°37'0 0.0
2017-Aug-18 10:59N 49°39' W 001°37'0 0.0
2017-Aug-18 10:29N 49°39' W 001°37'0 0.0
2017-Aug-18 09:59N 49°39' W 001°37'0 0.0
2017-Aug-18 09:29N 49°39' W 001°37'0 0.0
2017-Aug-18 08:59N 49°39' W 001°37'0 0.0
2017-Aug-18 08:29N 49°39' W 001°37'0 0.0
2017-Aug-18 07:59N 49°39' W 001°37'0 0.0
2017-Aug-18 07:29N 49°39' W 001°37'0 0.0
2017-Aug-18 06:59N 49°39' W 001°37'0 0.0
2017-Aug-18 06:29N 49°39' W 001°37'2 4.1
2017-Aug-18 06:00N 49°40' W 001°39'713.4
2017-Aug-18 05:30N 49°45' W 001°47'713.8
2017-Aug-18 05:00N 49°48' W 001°56'4814.6
2017-Aug-18 01:42N 49°43' W 003°10'315.3
2017-Aug-18 01:30N 49°41' W 003°14'714.1
2017-Aug-18 01:00N 49°37' W 003°23'  
2017-Aug-14 15:10N 43°35' W 005°41'38310.4
2017-Aug-13 02:25N 49°47' W 003°33'615.5
2017-Aug-13 02:00N 49°50' W 003°24'815.0
2017-Aug-13 01:28N 49°53' W 003°13'714.5
2017-Aug-13 01:00N 49°56' W 003°04'713.9
2017-Aug-13 00:30N 49°59' W 002°54'4612.0
2017-Aug-12 20:41N 50°17' W 001°48'412.3
2017-Aug-12 20:22N 50°19' W 001°43'512.9
2017-Aug-12 20:00N 50°21' W 001°36'3114.2
2017-Aug-12 17:50N 50°40' W 000°58'310.3
2017-Aug-12 17:30N 50°43' W 000°60'815.4
2017-Aug-12 17:01N 50°46' W 001°11'5 9.4
2017-Aug-12 16:30N 50°48' W 001°18'4 8.3
2017-Aug-12 16:01N 50°52' W 001°21'4 0.3
2017-Aug-12 03:14N 50°49' W 001°17'2 5.6
2017-Aug-12 02:49N 50°47' W 001°15'414.1
2017-Aug-12 02:30N 50°46' W 001°08'713.3
2017-Aug-12 02:00N 50°43' W 000°59'611.0
2017-Aug-12 01:29N 50°37' W 001°00'10515.1
2017-Aug-11 18:34N 49°40' W 003°17'115.1
2017-Aug-11 18:30N 49°40' W 003°18'5114.4
2017-Aug-11 14:58N 49°15' W 004°28'65516.2
2017-Aug-09 22:26N 39°04' W 009°52'715.3
2017-Aug-09 22:00N 38°57' W 009°52'815.3
2017-Aug-09 21:28N 38°49' W 009°51'715.5
2017-Aug-09 21:00N 38°41' W 009°50'816.0
2017-Aug-09 20:30N 38°37' W 009°42'917.0
2017-Aug-09 20:00N 38°36' W 009°31'814.9
2017-Aug-09 19:28N 38°38' W 009°21'715.2
2017-Aug-09 19:00N 38°41' W 009°12'4 8.0
2017-Aug-09 18:29N 38°43' W 009°07'0 0.0
2017-Aug-09 17:59N 38°43' W 009°07'0 0.0
2017-Aug-09 17:29N 38°43' W 009°07'0 0.0
2017-Aug-09 16:56N 38°43' W 009°07'0 0.0
2017-Aug-09 16:26N 38°43' W 009°07'0 0.0
2017-Aug-09 15:59N 38°43' W 009°07'0 0.0
2017-Aug-09 15:29N 38°43' W 009°07'0 0.0
2017-Aug-09 14:59N 38°43' W 009°07'0 0.0
2017-Aug-09 14:23N 38°43' W 009°07'0 0.0
2017-Aug-09 13:59N 38°43' W 009°07'0 0.0
2017-Aug-09 13:29N 38°43' W 009°07'0 0.0
2017-Aug-09 12:59N 38°43' W 009°07'0 0.0
2017-Aug-09 12:29N 38°43' W 009°07'0 0.0
2017-Aug-09 11:53N 38°43' W 009°07'0 0.0
2017-Aug-09 11:29N 38°43' W 009°07'0 0.0
2017-Aug-09 10:59N 38°43' W 009°07'1 1.2
2017-Aug-09 10:25N 38°42' W 009°08'510.9
2017-Aug-09 10:00N 38°41' W 009°14'714.7
2017-Aug-09 09:30N 38°38' W 009°22'815.4
2017-Aug-09 09:00N 38°30' W 009°25'918.5
2017-Aug-09 08:30N 38°21' W 009°25'1018.8
2017-Aug-09 07:57N 38°11' W 009°24'818.6
2017-Aug-09 07:30N 38°03' W 009°24'917.6
2017-Aug-09 07:00N 37°54' W 009°24'917.8
2017-Aug-09 06:29N 37°44' W 009°23'  

Dump ship's entire track history